Аэропорт: Белгород . Белгород

ICAO: UUOB

METAR:
2019/05/26 14:00
UUOB 261400Z 30008MPS 9999 BKN028CB 19/15 Q1006 R29/190057 NOSIG
METAR:
Информация по данной станции не доступна